sensor_id;sensor_type;location;lat;lon;timestamp;P1;durP1;ratioP1;P2;durP2;ratioP2
72284;SDS011;60220;53.552;10.092;2023-11-21T00:02:00;17.15;;;5.93;;
72284;SDS011;60220;53.552;10.092;2023-11-21T00:04:27;11.85;;;6.38;;
72284;SDS011;60220;53.552;10.092;2023-11-21T00:06:57;13.15;;;6.20;;
72284;SDS011;60220;53.552;10.092;2023-11-21T00:09:26;12.85;;;6.35;;
72284;SDS011;60220;53.552;10.092;2023-11-21T00:11:52;15.77;;;6.65;;
72284;SDS011;60220;53.552;10.092;2023-11-21T00:14:19;11.52;;;6.00;;
72284;SDS011;60220;53.552;10.092;2023-11-21T00:16:45;12.50;;;5.97;;
72284;SDS011;60220;53.552;10.092;2023-11-21T00:19:13;15.85;;;6.90;;
72284;SDS011;60220;53.552;10.092;2023-11-21T00:21:41;15.27;;;6.53;;
72284;SDS011;60220;53.552;10.092;2023-11-21T00:24:11;14.95;;;6.70;;
72284;SDS011;60220;53.552;10.092;2023-11-21T00:26:38;21.05;;;7.22;;
72284;SDS011;60220;53.552;10.092;2023-11-21T00:29:05;16.98;;;7.18;;
72284;SDS011;60220;53.552;10.092;2023-11-21T00:31:33;16.38;;;7.20;;
72284;SDS011;60220;53.552;10.092;2023-11-21T00:34:01;16.15;;;6.88;;
72284;SDS011;60220;53.552;10.092;2023-11-21T00:36:28;13.63;;;6.53;;
72284;SDS011;60220;53.552;10.092;2023-11-21T00:38:54;17.38;;;6.82;;
72284;SDS011;60220;53.552;10.092;2023-11-21T00:41:22;13.75;;;5.93;;
72284;SDS011;60220;53.552;10.092;2023-11-21T00:43:49;15.27;;;5.95;;
72284;SDS011;60220;53.552;10.092;2023-11-21T00:46:15;14.07;;;6.80;;
72284;SDS011;60220;53.552;10.092;2023-11-21T00:48:42;14.98;;;6.80;;
72284;SDS011;60220;53.552;10.092;2023-11-21T00:51:10;15.82;;;6.30;;
72284;SDS011;60220;53.552;10.092;2023-11-21T00:53:37;13.73;;;5.97;;
72284;SDS011;60220;53.552;10.092;2023-11-21T00:56:03;18.63;;;6.85;;
72284;SDS011;60220;53.552;10.092;2023-11-21T00:58:31;15.95;;;6.65;;
72284;SDS011;60220;53.552;10.092;2023-11-21T01:00:57;18.45;;;7.35;;
72284;SDS011;60220;53.552;10.092;2023-11-21T01:03:24;19.75;;;7.93;;
72284;SDS011;60220;53.552;10.092;2023-11-21T01:05:50;19.85;;;7.22;;
72284;SDS011;60220;53.552;10.092;2023-11-21T01:08:17;23.92;;;7.50;;
72284;SDS011;60220;53.552;10.092;2023-11-21T01:10:43;21.02;;;9.15;;
72284;SDS011;60220;53.552;10.092;2023-11-21T01:13:10;20.63;;;9.25;;
72284;SDS011;60220;53.552;10.092;2023-11-21T01:15:40;23.80;;;8.98;;
72284;SDS011;60220;53.552;10.092;2023-11-21T01:18:07;21.17;;;9.10;;
72284;SDS011;60220;53.552;10.092;2023-11-21T01:20:33;25.23;;;8.93;;
72284;SDS011;60220;53.552;10.092;2023-11-21T01:23:00;18.67;;;7.85;;
72284;SDS011;60220;53.552;10.092;2023-11-21T01:25:26;20.88;;;9.38;;
72284;SDS011;60220;53.552;10.092;2023-11-21T01:27:53;19.52;;;7.47;;
72284;SDS011;60220;53.552;10.092;2023-11-21T01:30:19;25.83;;;9.48;;
72284;SDS011;60220;53.552;10.092;2023-11-21T01:32:48;23.77;;;9.38;;
72284;SDS011;60220;53.552;10.092;2023-11-21T01:35:17;19.63;;;8.35;;
72284;SDS011;60220;53.552;10.092;2023-11-21T01:37:46;20.88;;;9.35;;
72284;SDS011;60220;53.552;10.092;2023-11-21T01:40:16;16.20;;;8.32;;
72284;SDS011;60220;53.552;10.092;2023-11-21T01:42:42;20.27;;;8.27;;
72284;SDS011;60220;53.552;10.092;2023-11-21T01:45:09;15.07;;;7.70;;
72284;SDS011;60220;53.552;10.092;2023-11-21T01:47:40;15.20;;;7.22;;
72284;SDS011;60220;53.552;10.092;2023-11-21T01:50:12;17.27;;;7.32;;
72284;SDS011;60220;53.552;10.092;2023-11-21T01:52:39;13.65;;;7.28;;
72284;SDS011;60220;53.552;10.092;2023-11-21T01:55:06;12.60;;;6.45;;
72284;SDS011;60220;53.552;10.092;2023-11-21T01:57:36;17.40;;;6.60;;
72284;SDS011;60220;53.552;10.092;2023-11-21T02:00:04;12.68;;;6.43;;
72284;SDS011;60220;53.552;10.092;2023-11-21T02:02:40;13.05;;;6.38;;
72284;SDS011;60220;53.552;10.092;2023-11-21T02:05:06;14.13;;;6.65;;
72284;SDS011;60220;53.552;10.092;2023-11-21T02:07:35;13.25;;;6.28;;
72284;SDS011;60220;53.552;10.092;2023-11-21T02:10:03;12.10;;;6.05;;
72284;SDS011;60220;53.552;10.092;2023-11-21T02:12:29;11.48;;;6.63;;
72284;SDS011;60220;53.552;10.092;2023-11-21T02:14:56;13.15;;;5.82;;
72284;SDS011;60220;53.552;10.092;2023-11-21T02:17:22;10.63;;;5.60;;
72284;SDS011;60220;53.552;10.092;2023-11-21T02:19:51;12.30;;;5.85;;
72284;SDS011;60220;53.552;10.092;2023-11-21T02:22:17;10.85;;;5.55;;
72284;SDS011;60220;53.552;10.092;2023-11-21T02:24:46;9.13;;;5.20;;
72284;SDS011;60220;53.552;10.092;2023-11-21T02:27:13;12.30;;;6.00;;
72284;SDS011;60220;53.552;10.092;2023-11-21T02:29:42;12.43;;;5.70;;
72284;SDS011;60220;53.552;10.092;2023-11-21T02:32:08;11.07;;;5.93;;
72284;SDS011;60220;53.552;10.092;2023-11-21T02:34:35;12.90;;;6.90;;
72284;SDS011;60220;53.552;10.092;2023-11-21T02:37:03;12.52;;;5.45;;
72284;SDS011;60220;53.552;10.092;2023-11-21T02:39:33;9.98;;;4.75;;
72284;SDS011;60220;53.552;10.092;2023-11-21T02:42:01;9.63;;;5.30;;
72284;SDS011;60220;53.552;10.092;2023-11-21T02:44:27;10.52;;;5.35;;
72284;SDS011;60220;53.552;10.092;2023-11-21T02:46:53;12.13;;;5.63;;
72284;SDS011;60220;53.552;10.092;2023-11-21T02:49:20;9.35;;;4.35;;
72284;SDS011;60220;53.552;10.092;2023-11-21T02:51:46;11.55;;;5.43;;
72284;SDS011;60220;53.552;10.092;2023-11-21T02:54:13;9.55;;;5.60;;
72284;SDS011;60220;53.552;10.092;2023-11-21T02:56:41;11.95;;;5.55;;
72284;SDS011;60220;53.552;10.092;2023-11-21T02:59:09;11.68;;;5.20;;
72284;SDS011;60220;53.552;10.092;2023-11-21T03:01:35;12.60;;;6.00;;
72284;SDS011;60220;53.552;10.092;2023-11-21T03:04:04;9.57;;;4.95;;
72284;SDS011;60220;53.552;10.092;2023-11-21T03:06:32;10.50;;;5.28;;
72284;SDS011;60220;53.552;10.092;2023-11-21T03:09:01;9.93;;;5.25;;
72284;SDS011;60220;53.552;10.092;2023-11-21T03:11:27;9.60;;;5.50;;
72284;SDS011;60220;53.552;10.092;2023-11-21T03:13:53;10.40;;;5.07;;
72284;SDS011;60220;53.552;10.092;2023-11-21T03:16:21;10.63;;;5.03;;
72284;SDS011;60220;53.552;10.092;2023-11-21T03:18:48;10.80;;;5.38;;
72284;SDS011;60220;53.552;10.092;2023-11-21T03:21:14;11.18;;;5.18;;
72284;SDS011;60220;53.552;10.092;2023-11-21T03:23:40;9.88;;;4.47;;
72284;SDS011;60220;53.552;10.092;2023-11-21T03:26:11;9.23;;;4.90;;
72284;SDS011;60220;53.552;10.092;2023-11-21T03:28:38;9.30;;;5.13;;
72284;SDS011;60220;53.552;10.092;2023-11-21T03:31:04;9.32;;;4.65;;
72284;SDS011;60220;53.552;10.092;2023-11-21T03:33:32;10.02;;;4.90;;
72284;SDS011;60220;53.552;10.092;2023-11-21T03:36:00;10.35;;;4.80;;
72284;SDS011;60220;53.552;10.092;2023-11-21T03:38:26;7.53;;;4.40;;
72284;SDS011;60220;53.552;10.092;2023-11-21T03:40:52;9.43;;;5.18;;
72284;SDS011;60220;53.552;10.092;2023-11-21T03:43:21;7.30;;;4.30;;
72284;SDS011;60220;53.552;10.092;2023-11-21T03:45:48;12.38;;;4.95;;
72284;SDS011;60220;53.552;10.092;2023-11-21T03:48:14;11.02;;;4.80;;
72284;SDS011;60220;53.552;10.092;2023-11-21T03:50:42;9.75;;;5.30;;
72284;SDS011;60220;53.552;10.092;2023-11-21T03:53:09;7.72;;;4.38;;
72284;SDS011;60220;53.552;10.092;2023-11-21T03:55:38;8.13;;;4.68;;
72284;SDS011;60220;53.552;10.092;2023-11-21T03:58:04;7.78;;;4.57;;
72284;SDS011;60220;53.552;10.092;2023-11-21T04:00:33;6.72;;;4.38;;
72284;SDS011;60220;53.552;10.092;2023-11-21T04:03:00;10.35;;;5.00;;
72284;SDS011;60220;53.552;10.092;2023-11-21T04:05:26;7.25;;;4.15;;
72284;SDS011;60220;53.552;10.092;2023-11-21T04:07:56;8.80;;;4.43;;
72284;SDS011;60220;53.552;10.092;2023-11-21T04:10:25;8.57;;;4.72;;
72284;SDS011;60220;53.552;10.092;2023-11-21T04:12:52;9.50;;;5.03;;
72284;SDS011;60220;53.552;10.092;2023-11-21T04:15:18;8.20;;;4.88;;
72284;SDS011;60220;53.552;10.092;2023-11-21T04:17:44;8.35;;;4.45;;
72284;SDS011;60220;53.552;10.092;2023-11-21T04:20:11;10.27;;;5.13;;
72284;SDS011;60220;53.552;10.092;2023-11-21T04:22:38;9.00;;;4.60;;
72284;SDS011;60220;53.552;10.092;2023-11-21T04:25:09;9.25;;;4.97;;
72284;SDS011;60220;53.552;10.092;2023-11-21T04:27:36;10.38;;;4.82;;
72284;SDS011;60220;53.552;10.092;2023-11-21T04:30:03;7.88;;;4.57;;
72284;SDS011;60220;53.552;10.092;2023-11-21T04:32:30;15.23;;;5.15;;
72284;SDS011;60220;53.552;10.092;2023-11-21T04:34:59;12.45;;;5.75;;
72284;SDS011;60220;53.552;10.092;2023-11-21T04:37:25;10.70;;;5.95;;
72284;SDS011;60220;53.552;10.092;2023-11-21T04:39:51;7.68;;;4.35;;
72284;SDS011;60220;53.552;10.092;2023-11-21T04:42:19;10.98;;;5.20;;
72284;SDS011;60220;53.552;10.092;2023-11-21T04:44:46;10.30;;;4.97;;
72284;SDS011;60220;53.552;10.092;2023-11-21T04:47:12;10.45;;;5.18;;
72284;SDS011;60220;53.552;10.092;2023-11-21T04:49:41;13.57;;;5.78;;
72284;SDS011;60220;53.552;10.092;2023-11-21T04:52:08;11.45;;;6.30;;
72284;SDS011;60220;53.552;10.092;2023-11-21T04:54:35;18.83;;;10.48;;
72284;SDS011;60220;53.552;10.092;2023-11-21T04:57:04;30.75;;;17.17;;
72284;SDS011;60220;53.552;10.092;2023-11-21T04:59:33;9.02;;;6.07;;
72284;SDS011;60220;53.552;10.092;2023-11-21T05:02:00;11.63;;;6.65;;
72284;SDS011;60220;53.552;10.092;2023-11-21T05:04:26;34.55;;;18.00;;
72284;SDS011;60220;53.552;10.092;2023-11-21T05:06:53;22.67;;;10.40;;
72284;SDS011;60220;53.552;10.092;2023-11-21T05:09:19;11.88;;;6.10;;
72284;SDS011;60220;53.552;10.092;2023-11-21T05:11:47;10.38;;;5.65;;
72284;SDS011;60220;53.552;10.092;2023-11-21T05:14:13;10.93;;;6.10;;
72284;SDS011;60220;53.552;10.092;2023-11-21T05:16:41;9.63;;;4.97;;
72284;SDS011;60220;53.552;10.092;2023-11-21T05:19:08;8.88;;;5.55;;
72284;SDS011;60220;53.552;10.092;2023-11-21T05:21:34;9.13;;;5.38;;
72284;SDS011;60220;53.552;10.092;2023-11-21T05:24:04;13.23;;;5.90;;
72284;SDS011;60220;53.552;10.092;2023-11-21T05:26:30;12.80;;;5.90;;
72284;SDS011;60220;53.552;10.092;2023-11-21T05:28:56;11.20;;;5.70;;
72284;SDS011;60220;53.552;10.092;2023-11-21T05:31:23;9.40;;;5.15;;
72284;SDS011;60220;53.552;10.092;2023-11-21T05:33:51;9.00;;;5.07;;
72284;SDS011;60220;53.552;10.092;2023-11-21T05:36:17;8.65;;;5.65;;
72284;SDS011;60220;53.552;10.092;2023-11-21T05:38:43;10.18;;;5.72;;
72284;SDS011;60220;53.552;10.092;2023-11-21T05:41:11;8.98;;;5.25;;
72284;SDS011;60220;53.552;10.092;2023-11-21T05:43:38;9.05;;;5.03;;
72284;SDS011;60220;53.552;10.092;2023-11-21T05:46:05;11.32;;;4.90;;
72284;SDS011;60220;53.552;10.092;2023-11-21T05:48:32;13.27;;;5.65;;
72284;SDS011;60220;53.552;10.092;2023-11-21T05:51:00;10.82;;;4.93;;
72284;SDS011;60220;53.552;10.092;2023-11-21T05:53:29;9.55;;;5.50;;
72284;SDS011;60220;53.552;10.092;2023-11-21T05:55:56;12.65;;;5.43;;
72284;SDS011;60220;53.552;10.092;2023-11-21T05:58:23;10.50;;;5.18;;
72284;SDS011;60220;53.552;10.092;2023-11-21T06:00:50;9.27;;;5.18;;
72284;SDS011;60220;53.552;10.092;2023-11-21T06:03:16;16.42;;;5.93;;
72284;SDS011;60220;53.552;10.092;2023-11-21T06:05:43;10.05;;;5.40;;
72284;SDS011;60220;53.552;10.092;2023-11-21T06:08:11;10.35;;;5.60;;
72284;SDS011;60220;53.552;10.092;2023-11-21T06:10:37;13.35;;;5.78;;
72284;SDS011;60220;53.552;10.092;2023-11-21T06:13:04;9.13;;;5.25;;
72284;SDS011;60220;53.552;10.092;2023-11-21T06:15:32;10.98;;;5.03;;
72284;SDS011;60220;53.552;10.092;2023-11-21T06:18:02;11.20;;;5.40;;
72284;SDS011;60220;53.552;10.092;2023-11-21T06:20:28;12.48;;;6.70;;
72284;SDS011;60220;53.552;10.092;2023-11-21T06:22:54;15.70;;;8.23;;
72284;SDS011;60220;53.552;10.092;2023-11-21T06:25:22;8.70;;;5.60;;
72284;SDS011;60220;53.552;10.092;2023-11-21T06:27:51;9.60;;;5.25;;
72284;SDS011;60220;53.552;10.092;2023-11-21T06:30:18;14.88;;;5.97;;
72284;SDS011;60220;53.552;10.092;2023-11-21T06:32:46;9.38;;;5.07;;
72284;SDS011;60220;53.552;10.092;2023-11-21T06:35:12;12.35;;;5.05;;
72284;SDS011;60220;53.552;10.092;2023-11-21T06:37:40;21.92;;;11.48;;
72284;SDS011;60220;53.552;10.092;2023-11-21T06:40:08;31.90;;;15.23;;
72284;SDS011;60220;53.552;10.092;2023-11-21T06:42:36;11.93;;;6.38;;
72284;SDS011;60220;53.552;10.092;2023-11-21T06:45:04;10.68;;;5.80;;
72284;SDS011;60220;53.552;10.092;2023-11-21T06:47:32;10.15;;;5.30;;
72284;SDS011;60220;53.552;10.092;2023-11-21T06:49:59;10.63;;;5.35;;
72284;SDS011;60220;53.552;10.092;2023-11-21T06:52:26;8.43;;;4.93;;
72284;SDS011;60220;53.552;10.092;2023-11-21T06:54:52;8.98;;;5.38;;
72284;SDS011;60220;53.552;10.092;2023-11-21T06:57:22;10.05;;;5.60;;
72284;SDS011;60220;53.552;10.092;2023-11-21T06:59:50;10.63;;;5.57;;
72284;SDS011;60220;53.552;10.092;2023-11-21T07:02:16;10.70;;;5.95;;
72284;SDS011;60220;53.552;10.092;2023-11-21T07:04:43;9.82;;;5.45;;
72284;SDS011;60220;53.552;10.092;2023-11-21T07:07:10;10.75;;;5.20;;
72284;SDS011;60220;53.552;10.092;2023-11-21T07:09:37;9.30;;;5.28;;
72284;SDS011;60220;53.552;10.092;2023-11-21T07:12:03;12.05;;;6.10;;
72284;SDS011;60220;53.552;10.092;2023-11-21T07:14:32;9.32;;;5.65;;
72284;SDS011;60220;53.552;10.092;2023-11-21T07:17:02;10.07;;;5.65;;
72284;SDS011;60220;53.552;10.092;2023-11-21T07:19:29;10.13;;;5.20;;
72284;SDS011;60220;53.552;10.092;2023-11-21T07:21:55;12.60;;;5.97;;
72284;SDS011;60220;53.552;10.092;2023-11-21T07:24:22;12.55;;;5.55;;
72284;SDS011;60220;53.552;10.092;2023-11-21T07:26:51;12.13;;;5.57;;
72284;SDS011;60220;53.552;10.092;2023-11-21T07:29:22;9.82;;;5.45;;
72284;SDS011;60220;53.552;10.092;2023-11-21T07:31:53;12.43;;;5.15;;
72284;SDS011;60220;53.552;10.092;2023-11-21T07:34:21;10.05;;;5.43;;
72284;SDS011;60220;53.552;10.092;2023-11-21T07:36:49;9.48;;;5.85;;
72284;SDS011;60220;53.552;10.092;2023-11-21T07:39:16;10.52;;;4.82;;
72284;SDS011;60220;53.552;10.092;2023-11-21T07:41:44;9.60;;;5.32;;
72284;SDS011;60220;53.552;10.092;2023-11-21T07:44:14;10.18;;;5.50;;
72284;SDS011;60220;53.552;10.092;2023-11-21T07:46:40;27.83;;;14.60;;
72284;SDS011;60220;53.552;10.092;2023-11-21T07:49:07;11.02;;;6.07;;
72284;SDS011;60220;53.552;10.092;2023-11-21T07:51:35;11.95;;;5.88;;
72284;SDS011;60220;53.552;10.092;2023-11-21T07:54:02;6.93;;;3.83;;
72284;SDS011;60220;53.552;10.092;2023-11-21T07:56:28;6.45;;;3.72;;
72284;SDS011;60220;53.552;10.092;2023-11-21T07:58:54;7.57;;;4.32;;
72284;SDS011;60220;53.552;10.092;2023-11-21T08:01:21;6.35;;;3.75;;
72284;SDS011;60220;53.552;10.092;2023-11-21T08:03:47;7.38;;;4.38;;
72284;SDS011;60220;53.552;10.092;2023-11-21T08:06:16;6.95;;;4.18;;
72284;SDS011;60220;53.552;10.092;2023-11-21T08:08:47;9.52;;;4.63;;
72284;SDS011;60220;53.552;10.092;2023-11-21T08:11:13;7.80;;;4.35;;
72284;SDS011;60220;53.552;10.092;2023-11-21T08:13:39;6.50;;;3.75;;
72284;SDS011;60220;53.552;10.092;2023-11-21T08:16:06;7.22;;;3.60;;
72284;SDS011;60220;53.552;10.092;2023-11-21T08:18:35;7.47;;;4.32;;
72284;SDS011;60220;53.552;10.092;2023-11-21T08:21:01;7.13;;;3.65;;
72284;SDS011;60220;53.552;10.092;2023-11-21T08:23:29;8.20;;;3.90;;
72284;SDS011;60220;53.552;10.092;2023-11-21T08:25:57;9.43;;;3.92;;
72284;SDS011;60220;53.552;10.092;2023-11-21T08:28:24;6.32;;;3.80;;
72284;SDS011;60220;53.552;10.092;2023-11-21T08:30:51;6.70;;;3.63;;
72284;SDS011;60220;53.552;10.092;2023-11-21T08:33:17;6.45;;;3.58;;
72284;SDS011;60220;53.552;10.092;2023-11-21T08:35:44;5.97;;;3.15;;
72284;SDS011;60220;53.552;10.092;2023-11-21T08:38:10;7.22;;;4.00;;
72284;SDS011;60220;53.552;10.092;2023-11-21T08:40:37;6.95;;;3.40;;
72284;SDS011;60220;53.552;10.092;2023-11-21T08:43:05;5.05;;;3.05;;
72284;SDS011;60220;53.552;10.092;2023-11-21T08:45:34;6.70;;;3.13;;
72284;SDS011;60220;53.552;10.092;2023-11-21T08:48:00;6.70;;;2.63;;
72284;SDS011;60220;53.552;10.092;2023-11-21T08:50:27;7.40;;;3.08;;
72284;SDS011;60220;53.552;10.092;2023-11-21T08:52:55;4.72;;;3.08;;
72284;SDS011;60220;53.552;10.092;2023-11-21T08:55:22;5.82;;;3.33;;
72284;SDS011;60220;53.552;10.092;2023-11-21T08:57:48;5.53;;;3.38;;
72284;SDS011;60220;53.552;10.092;2023-11-21T09:00:17;7.43;;;4.15;;
72284;SDS011;60220;53.552;10.092;2023-11-21T09:02:44;4.18;;;2.85;;
72284;SDS011;60220;53.552;10.092;2023-11-21T09:05:11;6.25;;;2.65;;
72284;SDS011;60220;53.552;10.092;2023-11-21T09:07:38;6.47;;;3.08;;
72284;SDS011;60220;53.552;10.092;2023-11-21T09:10:06;5.03;;;2.85;;
72284;SDS011;60220;53.552;10.092;2023-11-21T09:12:32;10.65;;;4.05;;
72284;SDS011;60220;53.552;10.092;2023-11-21T09:15:00;6.18;;;3.10;;
72284;SDS011;60220;53.552;10.092;2023-11-21T09:17:28;8.80;;;3.42;;
72284;SDS011;60220;53.552;10.092;2023-11-21T09:19:54;5.72;;;3.20;;
72284;SDS011;60220;53.552;10.092;2023-11-21T09:22:22;6.05;;;3.20;;
72284;SDS011;60220;53.552;10.092;2023-11-21T09:24:50;11.02;;;5.15;;
72284;SDS011;60220;53.552;10.092;2023-11-21T09:27:16;6.85;;;2.97;;
72284;SDS011;60220;53.552;10.092;2023-11-21T09:29:43;13.10;;;6.97;;
72284;SDS011;60220;53.552;10.092;2023-11-21T09:32:09;6.60;;;3.13;;
72284;SDS011;60220;53.552;10.092;2023-11-21T09:34:40;7.35;;;3.35;;
72284;SDS011;60220;53.552;10.092;2023-11-21T09:37:09;8.25;;;4.00;;
72284;SDS011;60220;53.552;10.092;2023-11-21T09:39:35;7.03;;;3.50;;
72284;SDS011;60220;53.552;10.092;2023-11-21T09:42:04;4.22;;;2.45;;
72284;SDS011;60220;53.552;10.092;2023-11-21T09:44:35;7.18;;;3.20;;
72284;SDS011;60220;53.552;10.092;2023-11-21T09:47:04;12.65;;;2.92;;
72284;SDS011;60220;53.552;10.092;2023-11-21T09:49:35;5.70;;;2.80;;
72284;SDS011;60220;53.552;10.092;2023-11-21T09:52:04;6.40;;;2.42;;
72284;SDS011;60220;53.552;10.092;2023-11-21T09:54:34;5.22;;;3.20;;
72284;SDS011;60220;53.552;10.092;2023-11-21T09:57:04;11.63;;;4.50;;
72284;SDS011;60220;53.552;10.092;2023-11-21T09:59:30;6.72;;;2.72;;
72284;SDS011;60220;53.552;10.092;2023-11-21T10:01:58;8.07;;;3.65;;
72284;SDS011;60220;53.552;10.092;2023-11-21T10:04:25;43.60;;;19.08;;
72284;SDS011;60220;53.552;10.092;2023-11-21T10:06:51;4.75;;;2.70;;
72284;SDS011;60220;53.552;10.092;2023-11-21T10:09:20;5.97;;;2.47;;
72284;SDS011;60220;53.552;10.092;2023-11-21T10:11:47;5.50;;;2.20;;
72284;SDS011;60220;53.552;10.092;2023-11-21T10:14:15;3.78;;;2.30;;
72284;SDS011;60220;53.552;10.092;2023-11-21T10:16:43;6.25;;;2.20;;
72284;SDS011;60220;53.552;10.092;2023-11-21T10:19:12;3.72;;;2.38;;
72284;SDS011;60220;53.552;10.092;2023-11-21T10:21:41;5.72;;;2.47;;
72284;SDS011;60220;53.552;10.092;2023-11-21T10:24:07;8.85;;;4.15;;
72284;SDS011;60220;53.552;10.092;2023-11-21T10:26:35;10.48;;;5.28;;
72284;SDS011;60220;53.552;10.092;2023-11-21T10:29:02;6.80;;;2.92;;
72284;SDS011;60220;53.552;10.092;2023-11-21T10:31:31;4.35;;;2.88;;
72284;SDS011;60220;53.552;10.092;2023-11-21T10:34:11;6.10;;;2.92;;
72284;SDS011;60220;53.552;10.092;2023-11-21T10:36:37;4.25;;;2.80;;
72284;SDS011;60220;53.552;10.092;2023-11-21T10:39:06;4.43;;;3.05;;
72284;SDS011;60220;53.552;10.092;2023-11-21T10:41:33;4.60;;;2.45;;
72284;SDS011;60220;53.552;10.092;2023-11-21T10:44:01;3.08;;;1.88;;
72284;SDS011;60220;53.552;10.092;2023-11-21T10:46:29;5.78;;;2.47;;
72284;SDS011;60220;53.552;10.092;2023-11-21T10:48:55;6.95;;;3.50;;
72284;SDS011;60220;53.552;10.092;2023-11-21T10:51:22;16.13;;;7.10;;
72284;SDS011;60220;53.552;10.092;2023-11-21T10:53:49;3.50;;;1.90;;
72284;SDS011;60220;53.552;10.092;2023-11-21T10:56:16;3.83;;;2.08;;
72284;SDS011;60220;53.552;10.092;2023-11-21T10:58:46;4.00;;;2.53;;
72284;SDS011;60220;53.552;10.092;2023-11-21T11:01:16;3.30;;;2.33;;
72284;SDS011;60220;53.552;10.092;2023-11-21T11:03:43;2.67;;;1.92;;
72284;SDS011;60220;53.552;10.092;2023-11-21T11:06:12;3.08;;;1.90;;
72284;SDS011;60220;53.552;10.092;2023-11-21T11:08:40;2.22;;;1.60;;
72284;SDS011;60220;53.552;10.092;2023-11-21T11:11:06;2.65;;;1.92;;
72284;SDS011;60220;53.552;10.092;2023-11-21T11:13:34;2.67;;;1.50;;
72284;SDS011;60220;53.552;10.092;2023-11-21T11:16:01;2.92;;;1.95;;
72284;SDS011;60220;53.552;10.092;2023-11-21T11:18:30;4.38;;;2.42;;
72284;SDS011;60220;53.552;10.092;2023-11-21T11:20:58;5.00;;;2.80;;
72284;SDS011;60220;53.552;10.092;2023-11-21T11:23:32;4.20;;;2.30;;
72284;SDS011;60220;53.552;10.092;2023-11-21T11:26:07;3.85;;;2.35;;
72284;SDS011;60220;53.552;10.092;2023-11-21T11:28:38;4.78;;;2.28;;
72284;SDS011;60220;53.552;10.092;2023-11-21T11:31:14;4.47;;;1.83;;
72284;SDS011;60220;53.552;10.092;2023-11-21T11:33:48;3.67;;;1.77;;
72284;SDS011;60220;53.552;10.092;2023-11-21T11:36:18;4.57;;;1.88;;
72284;SDS011;60220;53.552;10.092;2023-11-21T11:38:50;5.57;;;2.03;;
72284;SDS011;60220;53.552;10.092;2023-11-21T11:41:24;3.83;;;2.25;;
72284;SDS011;60220;53.552;10.092;2023-11-21T11:43:51;6.60;;;4.05;;
72284;SDS011;60220;53.552;10.092;2023-11-21T11:46:18;6.85;;;3.33;;
72284;SDS011;60220;53.552;10.092;2023-11-21T11:48:48;5.50;;;2.00;;
72284;SDS011;60220;53.552;10.092;2023-11-21T11:51:14;5.25;;;2.38;;
72284;SDS011;60220;53.552;10.092;2023-11-21T11:53:44;6.88;;;1.83;;
72284;SDS011;60220;53.552;10.092;2023-11-21T11:56:24;3.17;;;1.90;;
72284;SDS011;60220;53.552;10.092;2023-11-21T11:58:52;4.45;;;2.40;;
72284;SDS011;60220;53.552;10.092;2023-11-21T12:01:19;5.13;;;1.95;;
72284;SDS011;60220;53.552;10.092;2023-11-21T12:06:33;4.10;;;2.08;;
72284;SDS011;60220;53.552;10.092;2023-11-21T12:09:03;3.15;;;2.30;;
72284;SDS011;60220;53.552;10.092;2023-11-21T12:11:30;4.70;;;2.65;;
72284;SDS011;60220;53.552;10.092;2023-11-21T12:13:56;2.90;;;1.77;;
72284;SDS011;60220;53.552;10.092;2023-11-21T12:16:24;6.97;;;2.40;;
72284;SDS011;60220;53.552;10.092;2023-11-21T12:18:52;4.20;;;2.10;;
72284;SDS011;60220;53.552;10.092;2023-11-21T12:21:19;4.40;;;2.10;;
72284;SDS011;60220;53.552;10.092;2023-11-21T12:23:47;2.42;;;1.55;;
72284;SDS011;60220;53.552;10.092;2023-11-21T12:26:13;8.68;;;2.00;;
72284;SDS011;60220;53.552;10.092;2023-11-21T12:28:40;4.80;;;2.20;;
72284;SDS011;60220;53.552;10.092;2023-11-21T12:31:09;4.15;;;2.20;;
72284;SDS011;60220;53.552;10.092;2023-11-21T12:33:38;2.45;;;1.83;;
72284;SDS011;60220;53.552;10.092;2023-11-21T12:36:08;3.72;;;1.80;;
72284;SDS011;60220;53.552;10.092;2023-11-21T12:38:36;5.22;;;2.03;;
72284;SDS011;60220;53.552;10.092;2023-11-21T12:41:04;2.97;;;1.80;;
72284;SDS011;60220;53.552;10.092;2023-11-21T12:43:31;3.90;;;1.75;;
72284;SDS011;60220;53.552;10.092;2023-11-21T12:46:04;6.30;;;2.72;;
72284;SDS011;60220;53.552;10.092;2023-11-21T12:48:33;3.58;;;2.28;;
72284;SDS011;60220;53.552;10.092;2023-11-21T12:51:00;3.67;;;1.85;;
72284;SDS011;60220;53.552;10.092;2023-11-21T12:53:28;5.28;;;1.90;;
72284;SDS011;60220;53.552;10.092;2023-11-21T12:58:29;3.58;;;2.00;;
72284;SDS011;60220;53.552;10.092;2023-11-21T13:00:56;2.83;;;1.85;;
72284;SDS011;60220;53.552;10.092;2023-11-21T13:03:24;4.20;;;1.33;;
72284;SDS011;60220;53.552;10.092;2023-11-21T13:05:51;2.20;;;1.85;;
72284;SDS011;60220;53.552;10.092;2023-11-21T13:08:22;3.42;;;1.80;;
72284;SDS011;60220;53.552;10.092;2023-11-21T13:10:49;4.10;;;1.85;;
72284;SDS011;60220;53.552;10.092;2023-11-21T13:13:16;3.63;;;1.95;;
72284;SDS011;60220;53.552;10.092;2023-11-21T13:15:49;5.38;;;2.60;;
72284;SDS011;60220;53.552;10.092;2023-11-21T13:18:18;7.40;;;3.55;;
72284;SDS011;60220;53.552;10.092;2023-11-21T13:20:46;3.25;;;1.90;;
72284;SDS011;60220;53.552;10.092;2023-11-21T13:23:13;7.93;;;2.97;;
72284;SDS011;60220;53.552;10.092;2023-11-21T13:25:43;3.50;;;1.75;;
72284;SDS011;60220;53.552;10.092;2023-11-21T13:28:12;5.68;;;2.90;;
72284;SDS011;60220;53.552;10.092;2023-11-21T13:30:40;9.63;;;2.90;;
72284;SDS011;60220;53.552;10.092;2023-11-21T13:33:08;3.50;;;1.90;;
72284;SDS011;60220;53.552;10.092;2023-11-21T13:35:37;7.30;;;2.15;;
72284;SDS011;60220;53.552;10.092;2023-11-21T13:38:09;4.25;;;2.22;;
72284;SDS011;60220;53.552;10.092;2023-11-21T13:40:36;6.57;;;3.28;;
72284;SDS011;60220;53.552;10.092;2023-11-21T13:43:08;2.42;;;1.95;;
72284;SDS011;60220;53.552;10.092;2023-11-21T13:45:35;4.65;;;2.10;;
72284;SDS011;60220;53.552;10.092;2023-11-21T13:48:01;4.05;;;1.90;;
72284;SDS011;60220;53.552;10.092;2023-11-21T13:50:34;3.03;;;2.00;;
72284;SDS011;60220;53.552;10.092;2023-11-21T13:53:03;2.33;;;1.90;;
72284;SDS011;60220;53.552;10.092;2023-11-21T13:55:38;5.40;;;2.65;;
72284;SDS011;60220;53.552;10.092;2023-11-21T13:58:05;3.70;;;1.77;;
72284;SDS011;60220;53.552;10.092;2023-11-21T14:00:37;3.65;;;2.30;;
72284;SDS011;60220;53.552;10.092;2023-11-21T14:03:09;7.13;;;2.10;;
72284;SDS011;60220;53.552;10.092;2023-11-21T14:05:44;3.58;;;2.10;;
72284;SDS011;60220;53.552;10.092;2023-11-21T14:08:12;3.42;;;1.85;;
72284;SDS011;60220;53.552;10.092;2023-11-21T14:10:42;4.35;;;2.05;;
72284;SDS011;60220;53.552;10.092;2023-11-21T14:13:09;3.58;;;2.38;;
72284;SDS011;60220;53.552;10.092;2023-11-21T14:15:39;3.33;;;1.92;;
72284;SDS011;60220;53.552;10.092;2023-11-21T14:18:08;3.78;;;2.05;;
72284;SDS011;60220;53.552;10.092;2023-11-21T14:20:36;4.38;;;2.13;;
72284;SDS011;60220;53.552;10.092;2023-11-21T14:23:06;5.03;;;1.95;;
72284;SDS011;60220;53.552;10.092;2023-11-21T14:25:33;4.07;;;2.15;;
72284;SDS011;60220;53.552;10.092;2023-11-21T14:28:02;2.65;;;1.88;;
72284;SDS011;60220;53.552;10.092;2023-11-21T14:30:29;6.75;;;1.90;;
72284;SDS011;60220;53.552;10.092;2023-11-21T14:32:57;3.88;;;1.90;;
72284;SDS011;60220;53.552;10.092;2023-11-21T14:35:23;5.85;;;2.08;;
72284;SDS011;60220;53.552;10.092;2023-11-21T14:37:52;5.20;;;2.08;;